Time;durP1;ratioP1;P1;durP2;ratioP2;P2;SDS_P1;SDS_P2;PMS_P1;PMS_P2;Temp;Humidity;BMP_temperature;BMP_pressure;BME280_temperature;BME280_humidity;BME280_pressure;Samples;Min_cycle;Max_cycle;Signal;HPM_P1;HPM_P2
2023/09/24 00:01:44;;;;;;;6.18;3.13;;;14.00;99.90;;;;;;4955744;29;20198;-68
2023/09/24 00:04:10;;;;;;;6.50;3.17;;;14.00;99.90;;;;;;4955701;29;20198;-68
2023/09/24 00:06:36;;;;;;;9.98;3.42;;;14.00;99.90;;;;;;4920530;29;20636;-67
2023/09/24 00:09:03;;;;;;;10.48;3.55;;;14.00;99.90;;;;;;4954603;29;20695;-70
2023/09/24 00:11:29;;;;;;;9.70;3.33;;;14.00;99.90;;;;;;4955555;29;20230;-69
2023/09/24 00:13:55;;;;;;;8.35;3.53;;;14.00;99.90;;;;;;4955969;29;20191;-68
2023/09/24 00:16:21;;;;;;;10.15;3.50;;;14.00;99.90;;;;;;4949348;29;20211;-69
2023/09/24 00:18:47;;;;;;;7.78;3.40;;;14.00;99.90;;;;;;4951426;29;20273;-68
2023/09/24 00:21:13;;;;;;;10.27;3.58;;;14.00;99.90;;;;;;4954875;29;20206;-68
2023/09/24 00:23:39;;;;;;;12.00;3.08;;;14.00;99.90;;;;;;4955395;29;20247;-68
2023/09/24 00:26:05;;;;;;;18.45;3.50;;;13.90;99.90;;;;;;4921282;29;20197;-68
2023/09/24 00:28:31;;;;;;;10.30;3.10;;;13.90;99.90;;;;;;4955669;29;20201;-68
2023/09/24 00:31:00;;;;;;;9.38;3.35;;;13.80;99.90;;;;;;4954016;28;20281;-67
2023/09/24 00:33:26;;;;;;;9.57;3.50;;;13.80;99.90;;;;;;4954721;29;20346;-69
2023/09/24 00:35:53;;;;;;;13.23;3.10;;;13.70;99.90;;;;;;4949769;29;20295;-69
2023/09/24 00:38:19;;;;;;;8.73;3.58;;;13.70;99.90;;;;;;4953194;28;20222;-68
2023/09/24 00:40:45;;;;;;;14.55;3.83;;;13.60;99.90;;;;;;4953664;28;20277;-68
2023/09/24 00:43:32;;;;;;;10.38;3.90;;;13.60;99.90;;;;;;4937402;29;20202;-69
2023/09/24 00:46:09;;;;;;;10.35;3.70;;;13.50;99.90;;;;;;4940654;29;20190;-68
2023/09/24 00:48:37;;;;;;;11.77;3.92;;;13.50;99.90;;;;;;4937870;29;20242;-69
2023/09/24 00:51:14;;;;;;;11.43;3.88;;;13.50;99.90;;;;;;4937699;29;20191;-68
2023/09/24 00:53:40;;;;;;;18.15;4.25;;;13.40;99.90;;;;;;4936826;29;20193;-69
2023/09/24 00:56:06;;;;;;;11.75;4.28;;;13.40;99.90;;;;;;4906384;29;20183;-69
2023/09/24 00:58:34;;;;;;;8.80;3.78;;;13.30;99.90;;;;;;4934907;29;20195;-69
2023/09/24 01:01:00;;;;;;;11.98;3.60;;;13.20;99.90;;;;;;4954767;29;20199;-68
2023/09/24 01:03:27;;;;;;;11.05;4.55;;;13.20;99.90;;;;;;4937563;29;20666;-68
2023/09/24 01:05:54;;;;;;;11.90;3.83;;;13.10;99.90;;;;;;4933021;29;20199;-68
2023/09/24 01:08:25;;;;;;;15.45;4.07;;;13.10;99.90;;;;;;4967744;28;20182;-68
2023/09/24 01:10:52;;;;;;;10.18;4.43;;;13.10;99.90;;;;;;4937241;28;20186;-68
2023/09/24 01:13:19;;;;;;;16.15;4.28;;;13.10;99.90;;;;;;4937332;29;20555;-69
2023/09/24 01:15:49;;;;;;;11.20;4.43;;;13.10;99.90;;;;;;4964671;28;20225;-69
2023/09/24 01:18:17;;;;;;;10.43;4.07;;;13.00;99.90;;;;;;4954617;28;20249;-68
2023/09/24 01:20:43;;;;;;;12.15;4.30;;;13.00;99.90;;;;;;4921901;29;20202;-68
2023/09/24 01:23:14;;;;;;;6.43;3.75;;;13.00;99.90;;;;;;4937156;29;20189;-68
2023/09/24 01:25:42;;;;;;;8.68;4.30;;;13.00;99.90;;;;;;4950258;29;20278;-69
2023/09/24 01:28:08;;;;;;;12.23;4.75;;;12.90;99.90;;;;;;4952637;29;20683;-67
2023/09/24 01:30:34;;;;;;;10.45;4.32;;;12.90;99.90;;;;;;4921388;29;20281;-68
2023/09/24 01:33:01;;;;;;;12.35;4.50;;;12.90;99.90;;;;;;4953371;29;20199;-70
2023/09/24 01:35:28;;;;;;;17.55;4.82;;;12.90;99.90;;;;;;4928801;29;20198;-69
2023/09/24 01:38:03;;;;;;;11.23;4.75;;;12.80;99.90;;;;;;4953251;29;20273;-69
2023/09/24 01:40:33;;;;;;;12.65;4.45;;;12.80;99.90;;;;;;4936746;29;20208;-68
2023/09/24 01:43:00;;;;;;;10.55;4.55;;;12.80;99.90;;;;;;4954281;29;20187;-69
2023/09/24 01:45:30;;;;;;;10.10;4.68;;;12.80;99.90;;;;;;4953217;29;20195;-68
2023/09/24 01:47:56;;;;;;;13.63;5.00;;;12.80;99.90;;;;;;4936833;29;20289;-68
2023/09/24 01:50:27;;;;;;;15.07;4.95;;;12.80;99.90;;;;;;4936161;29;20186;-69
2023/09/24 01:52:57;;;;;;;15.73;4.88;;;12.80;99.90;;;;;;4936013;29;20202;-69
2023/09/24 01:55:25;;;;;;;13.60;4.75;;;12.80;99.90;;;;;;4931152;29;20237;-69
2023/09/24 01:57:51;;;;;;;11.45;5.00;;;12.80;99.90;;;;;;4936441;29;20566;-69
2023/09/24 02:00:23;;;;;;;11.82;4.72;;;12.70;99.90;;;;;;4966849;28;20202;-68
2023/09/24 02:02:59;;;;;;;14.82;4.53;;;12.70;99.90;;;;;;4936791;29;20237;-70
2023/09/24 02:05:33;;;;;;;9.13;4.38;;;12.70;99.90;;;;;;4952420;29;20185;-69
2023/09/24 02:08:10;;;;;;;11.18;4.45;;;12.70;99.90;;;;;;4919733;29;20209;-69
2023/09/24 02:10:40;;;;;;;10.88;4.55;;;12.70;99.90;;;;;;4935786;29;20186;-68
2023/09/24 02:13:07;;;;;;;15.13;4.50;;;12.70;99.90;;;;;;4935615;29;20230;-70
2023/09/24 02:15:34;;;;;;;11.48;4.35;;;12.70;99.90;;;;;;4932051;29;20191;-69
2023/09/24 02:18:00;;;;;;;10.63;4.10;;;12.70;99.90;;;;;;4967787;28;20218;-68
2023/09/24 02:20:32;;;;;;;10.00;4.32;;;12.70;99.90;;;;;;4936083;29;20195;-68
2023/09/24 02:23:01;;;;;;;11.50;4.53;;;12.70;99.90;;;;;;4919455;29;20183;-67
2023/09/24 02:25:29;;;;;;;11.27;4.13;;;12.70;99.90;;;;;;4952647;29;20669;-67
2023/09/24 02:27:56;;;;;;;10.07;4.20;;;12.70;99.90;;;;;;4952412;29;20242;-67
2023/09/24 02:30:24;;;;;;;12.48;4.38;;;12.70;99.90;;;;;;4956182;28;20245;-69
2023/09/24 02:32:50;;;;;;;15.00;4.05;;;12.70;99.90;;;;;;4956417;28;20261;-69
2023/09/24 02:35:16;;;;;;;11.98;4.13;;;12.70;99.90;;;;;;4969215;28;20700;-68
2023/09/24 02:37:45;;;;;;;10.57;4.85;;;12.70;99.90;;;;;;4923543;29;20218;-68
2023/09/24 02:40:18;;;;;;;16.55;4.65;;;12.70;99.90;;;;;;4957444;29;20651;-68
2023/09/24 02:42:46;;;;;;;14.70;5.22;;;12.70;99.90;;;;;;4945824;29;20229;-70
2023/09/24 02:45:15;;;;;;;11.35;4.88;;;12.70;99.90;;;;;;4956277;29;20208;-69
2023/09/24 02:47:42;;;;;;;15.90;4.85;;;12.70;99.90;;;;;;4956872;29;20198;-68
2023/09/24 02:50:12;;;;;;;8.82;4.68;;;12.70;99.90;;;;;;4939644;29;20206;-68
2023/09/24 02:52:43;;;;;;;12.88;4.63;;;12.70;99.90;;;;;;4938930;29;20183;-71
2023/09/24 02:55:10;;;;;;;13.77;5.07;;;12.70;99.90;;;;;;4951209;29;20194;-69
2023/09/24 02:57:37;;;;;;;13.60;4.95;;;12.70;99.90;;;;;;4957024;29;20293;-68
2023/09/24 03:02:50;;;;;;;12.85;5.53;;;12.70;99.90;;;;;;4964436;28;20206;-68
2023/09/24 03:05:24;;;;;;;14.20;5.60;;;12.70;99.90;;;;;;4939335;29;20228;-69
2023/09/24 03:07:56;;;;;;;9.88;5.68;;;12.70;99.90;;;;;;4938921;29;20202;-69
2023/09/24 03:10:23;;;;;;;13.55;6.28;;;12.70;99.90;;;;;;4939467;29;20194;-68
2023/09/24 03:12:49;;;;;;;12.20;6.65;;;12.70;99.90;;;;;;4936774;29;20238;-68
2023/09/24 03:15:16;;;;;;;14.25;6.53;;;12.70;99.90;;;;;;4952749;29;20218;-68
2023/09/24 03:17:46;;;;;;;11.25;6.93;;;12.70;99.90;;;;;;4971368;28;20214;-68
2023/09/24 03:20:15;;;;;;;14.27;7.20;;;12.70;99.90;;;;;;4957158;29;20194;-68
2023/09/24 03:22:53;;;;;;;13.90;7.38;;;12.70;99.90;;;;;;4956283;29;20190;-68
2023/09/24 03:25:22;;;;;;;13.35;7.55;;;12.70;99.90;;;;;;4937005;29;20186;-69
2023/09/24 03:27:49;;;;;;;15.00;7.18;;;12.70;99.90;;;;;;4968729;28;20179;-68
2023/09/24 03:30:19;;;;;;;15.95;7.63;;;12.80;99.90;;;;;;4956467;29;20193;-69
2023/09/24 03:32:53;;;;;;;13.27;7.05;;;12.80;99.90;;;;;;4955282;29;20612;-68
2023/09/24 03:35:23;;;;;;;12.82;7.47;;;12.90;99.90;;;;;;4956069;29;20194;-68
2023/09/24 03:37:48;;;;;;;14.30;7.28;;;12.90;99.90;;;;;;4938173;29;20234;-68
2023/09/24 03:40:17;;;;;;;14.88;6.93;;;12.90;99.90;;;;;;4922676;29;20186;-69
2023/09/24 03:42:44;;;;;;;11.00;7.10;;;12.90;99.90;;;;;;4936577;29;20223;-69
2023/09/24 03:45:15;;;;;;;13.82;6.97;;;13.00;99.90;;;;;;4968135;28;20245;-69
2023/09/24 03:47:42;;;;;;;14.18;7.55;;;13.00;99.90;;;;;;4939212;29;20667;-69
2023/09/24 03:50:11;;;;;;;13.43;6.80;;;13.00;99.90;;;;;;4907133;29;20198;-69
2023/09/24 03:52:37;;;;;;;10.77;7.57;;;13.00;99.90;;;;;;4937934;29;20269;-70
2023/09/24 03:55:05;;;;;;;14.40;7.43;;;13.00;99.90;;;;;;4934101;29;20281;-68
2023/09/24 03:57:31;;;;;;;15.60;8.00;;;13.00;99.90;;;;;;4938451;29;20300;-69
2023/09/24 03:59:58;;;;;;;15.85;7.90;;;13.00;99.90;;;;;;4938407;29;20278;-69
2023/09/24 04:02:26;;;;;;;10.75;7.75;;;13.00;99.90;;;;;;4955456;29;20182;-68
2023/09/24 04:04:53;;;;;;;14.50;7.72;;;13.00;99.90;;;;;;4951310;29;20310;-68
2023/09/24 04:07:20;;;;;;;11.73;7.70;;;13.00;99.90;;;;;;4954189;29;20193;-68
2023/09/24 04:09:47;;;;;;;13.27;8.35;;;12.90;99.90;;;;;;4938287;29;20277;-68
2023/09/24 04:12:13;;;;;;;13.40;7.20;;;12.90;99.90;;;;;;4955487;29;20242;-68
2023/09/24 04:14:39;;;;;;;15.15;7.47;;;12.90;99.90;;;;;;4952653;29;20201;-68
2023/09/24 04:17:06;;;;;;;12.73;8.40;;;12.90;99.90;;;;;;4953334;29;20253;-67
2023/09/24 04:19:32;;;;;;;13.02;8.05;;;12.90;99.90;;;;;;4955251;29;20278;-67
2023/09/24 04:21:58;;;;;;;16.38;7.75;;;12.80;99.90;;;;;;4955730;29;20197;-68
2023/09/24 04:24:25;;;;;;;15.98;8.60;;;12.80;99.90;;;;;;4953699;28;20659;-68
2023/09/24 04:26:52;;;;;;;15.35;9.30;;;12.80;99.90;;;;;;4947433;28;20183;-68
2023/09/24 04:29:19;;;;;;;13.95;8.85;;;12.80;99.90;;;;;;4970289;28;20237;-70
2023/09/24 04:31:45;;;;;;;15.30;8.85;;;12.70;99.90;;;;;;4955105;29;20195;-70
2023/09/24 04:34:12;;;;;;;15.02;8.80;;;12.70;99.90;;;;;;4955033;29;20205;-70
2023/09/24 04:36:42;;;;;;;13.85;8.95;;;12.70;99.90;;;;;;4954359;29;20230;-68
2023/09/24 04:39:11;;;;;;;17.85;9.10;;;12.70;99.90;;;;;;4937309;29;20536;-68
2023/09/24 04:41:40;;;;;;;14.57;9.35;;;12.70;99.90;;;;;;4952069;29;20301;-68
2023/09/24 04:44:09;;;;;;;13.18;9.07;;;12.60;99.90;;;;;;4937637;29;20198;-68
2023/09/24 04:46:36;;;;;;;15.43;9.75;;;12.60;99.90;;;;;;4935354;29;20186;-69
2023/09/24 04:49:05;;;;;;;15.10;9.57;;;12.50;99.90;;;;;;4950812;28;20750;-70
2023/09/24 04:51:32;;;;;;;16.17;9.45;;;12.50;99.90;;;;;;4949366;28;20198;-70
2023/09/24 04:54:01;;;;;;;18.15;10.10;;;12.50;99.90;;;;;;4954394;28;20281;-68
2023/09/24 04:56:28;;;;;;;16.92;9.88;;;12.50;99.90;;;;;;4953782;29;20222;-68
2023/09/24 04:58:54;;;;;;;15.75;9.23;;;12.50;99.90;;;;;;4951721;28;20659;-68
2023/09/24 05:01:20;;;;;;;14.93;9.57;;;12.40;99.90;;;;;;4954053;29;20265;-69
2023/09/24 05:03:49;;;;;;;14.35;9.20;;;12.40;99.90;;;;;;4954683;29;20670;-68
2023/09/24 05:06:15;;;;;;;14.88;9.40;;;12.40;99.90;;;;;;4954631;29;20282;-68
2023/09/24 05:08:40;;;;;;;16.30;9.55;;;12.40;99.90;;;;;;4948906;29;20663;-68
2023/09/24 05:11:10;;;;;;;18.33;10.18;;;12.40;99.90;;;;;;4952603;29;20213;-67
2023/09/24 05:13:36;;;;;;;18.50;9.77;;;12.30;99.90;;;;;;4954459;29;20189;-67
2023/09/24 05:16:02;;;;;;;15.88;9.55;;;12.30;99.90;;;;;;4954406;29;20186;-67
2023/09/24 05:18:31;;;;;;;12.07;9.00;;;12.30;99.90;;;;;;4950891;29;20289;-68
2023/09/24 05:20:57;;;;;;;17.40;9.07;;;12.30;99.90;;;;;;4950225;29;20273;-69
2023/09/24 05:23:26;;;;;;;16.95;9.82;;;12.30;99.90;;;;;;4944772;29;20285;-70
2023/09/24 05:25:52;;;;;;;15.75;10.25;;;12.30;99.90;;;;;;4954438;29;20647;-69
2023/09/24 05:28:18;;;;;;;13.38;9.10;;;12.20;99.90;;;;;;4953869;29;20662;-69
2023/09/24 05:30:54;;;;;;;18.42;9.63;;;12.30;99.90;;;;;;4936854;29;20643;-70
2023/09/24 05:33:20;;;;;;;15.93;9.25;;;12.20;99.90;;;;;;4954010;29;20190;-69
2023/09/24 05:35:52;;;;;;;17.33;9.30;;;12.30;99.90;;;;;;4932347;29;20560;-69
2023/09/24 05:38:19;;;;;;;14.48;8.68;;;12.30;99.90;;;;;;4943293;29;20688;-69
2023/09/24 05:40:45;;;;;;;16.88;8.90;;;12.30;99.90;;;;;;4949265;29;20218;-73
2023/09/24 05:43:11;;;;;;;14.98;8.45;;;12.20;99.90;;;;;;4953869;29;20251;-72
2023/09/24 05:45:44;;;;;;;18.98;9.38;;;12.20;99.90;;;;;;4953484;29;20182;-69
2023/09/24 05:48:10;;;;;;;19.55;8.60;;;12.20;99.90;;;;;;4954277;29;20186;-68
2023/09/24 05:50:36;;;;;;;15.82;8.20;;;12.20;99.90;;;;;;4952008;29;20656;-70
2023/09/24 05:53:02;;;;;;;14.60;8.23;;;12.30;99.90;;;;;;4936879;29;20194;-71
2023/09/24 05:55:29;;;;;;;13.02;7.65;;;12.30;99.90;;;;;;4944602;29;21003;-69
2023/09/24 05:57:55;;;;;;;13.68;8.20;;;12.30;99.90;;;;;;4953428;29;20245;-68
2023/09/24 06:00:21;;;;;;;15.00;8.13;;;12.30;99.90;;;;;;4951502;29;20194;-70
2023/09/24 06:02:46;;;;;;;14.60;8.90;;;12.30;99.90;;;;;;4964532;28;20186;-69
2023/09/24 06:05:12;;;;;;;17.13;8.60;;;12.30;99.90;;;;;;4952764;29;20713;-70
2023/09/24 06:07:38;;;;;;;12.63;7.85;;;12.30;99.90;;;;;;4952874;29;20186;-68
2023/09/24 06:10:05;;;;;;;20.13;8.27;;;12.30;99.90;;;;;;4952415;29;20534;-68
2023/09/24 06:12:32;;;;;;;13.40;7.30;;;12.30;99.90;;;;;;4948358;29;20238;-70
2023/09/24 06:14:58;;;;;;;13.10;7.82;;;12.30;99.90;;;;;;4951652;29;20194;-69
2023/09/24 06:17:24;;;;;;;14.70;7.82;;;12.40;99.90;;;;;;4953462;29;20226;-70
2023/09/24 06:19:51;;;;;;;14.88;7.63;;;12.40;99.90;;;;;;4936060;29;20238;-70
2023/09/24 06:22:17;;;;;;;18.48;8.20;;;12.40;99.90;;;;;;4949934;29;20192;-69
2023/09/24 06:24:43;;;;;;;14.02;7.25;;;12.40;99.90;;;;;;4964987;28;20195;-70
2023/09/24 06:27:09;;;;;;;12.38;7.80;;;12.40;99.90;;;;;;4953168;29;20212;-70
2023/09/24 06:29:38;;;;;;;10.90;7.22;;;12.40;99.90;;;;;;4936445;29;20198;-68
2023/09/24 06:32:04;;;;;;;12.02;7.20;;;12.50;99.90;;;;;;4933998;29;20279;-69
2023/09/24 06:34:31;;;;;;;14.63;7.25;;;12.60;99.90;;;;;;4947948;29;20186;-70
2023/09/24 06:36:57;;;;;;;13.98;7.00;;;12.60;99.90;;;;;;4948578;29;20229;-68
2023/09/24 06:39:25;;;;;;;11.07;7.10;;;12.60;99.90;;;;;;4935755;29;20198;-69
2023/09/24 06:41:51;;;;;;;17.92;7.53;;;12.70;99.90;;;;;;4953522;29;20194;-70
2023/09/24 06:44:23;;;;;;;11.88;6.95;;;12.70;99.90;;;;;;4946877;28;20606;-69
2023/09/24 06:46:52;;;;;;;11.77;7.35;;;12.80;99.90;;;;;;4945520;29;20281;-69
2023/09/24 06:49:19;;;;;;;15.18;7.22;;;12.80;99.90;;;;;;4930791;29;20189;-70
2023/09/24 06:51:45;;;;;;;13.02;6.47;;;12.90;99.90;;;;;;4953411;29;20190;-68
2023/09/24 06:54:12;;;;;;;13.93;7.03;;;12.90;99.90;;;;;;4951734;28;20202;-69
2023/09/24 06:56:37;;;;;;;13.45;6.30;;;13.00;99.90;;;;;;4952479;29;20182;-69
2023/09/24 06:59:09;;;;;;;14.95;7.30;;;13.00;99.90;;;;;;4953241;29;20539;-69
2023/09/24 07:01:37;;;;;;;14.45;7.13;;;13.10;99.90;;;;;;4953317;29;20194;-70
2023/09/24 07:04:06;;;;;;;9.75;6.30;;;13.10;99.90;;;;;;4953273;29;20254;-69
2023/09/24 07:06:33;;;;;;;10.35;6.82;;;13.20;99.90;;;;;;4951754;29;20560;-69
2023/09/24 07:09:00;;;;;;;16.38;6.88;;;13.30;99.90;;;;;;4963443;28;20264;-69
2023/09/24 07:11:32;;;;;;;12.65;6.53;;;13.30;99.90;;;;;;4952711;29;20273;-69
2023/09/24 07:13:59;;;;;;;13.35;7.75;;;13.30;99.90;;;;;;4951672;29;20644;-70
2023/09/24 07:16:26;;;;;;;17.17;6.60;;;13.40;99.90;;;;;;4930470;29;20214;-70
2023/09/24 07:18:53;;;;;;;16.33;6.75;;;13.40;99.90;;;;;;4918603;29;20344;-70
2023/09/24 07:21:28;;;;;;;15.30;6.68;;;13.50;99.90;;;;;;4969106;28;20646;-69
2023/09/24 07:23:56;;;;;;;14.50;6.88;;;13.50;99.90;;;;;;4960485;28;20186;-67
2023/09/24 07:26:23;;;;;;;13.40;6.35;;;13.60;99.90;;;;;;4930468;29;20191;-70
2023/09/24 07:28:49;;;;;;;14.82;6.60;;;13.60;99.90;;;;;;4951271;29;20178;-67
2023/09/24 07:31:19;;;;;;;15.80;6.75;;;13.70;99.90;;;;;;4955006;29;20193;-71
2023/09/24 07:33:45;;;;;;;13.57;6.80;;;13.70;99.90;;;;;;4956610;29;20643;-67
2023/09/24 07:36:11;;;;;;;12.75;6.30;;;13.70;99.90;;;;;;4939345;29;20261;-69
2023/09/24 07:38:39;;;;;;;11.15;6.55;;;13.80;99.90;;;;;;4952531;29;20224;-68
2023/09/24 07:41:07;;;;;;;14.35;6.15;;;13.80;99.90;;;;;;4936267;29;20754;-68
2023/09/24 07:43:43;;;;;;;14.75;6.18;;;13.80;99.90;;;;;;4955696;29;20210;-68
2023/09/24 07:46:14;;;;;;;15.90;6.18;;;13.90;99.90;;;;;;4953918;29;20632;-68
2023/09/24 07:48:44;;;;;;;12.52;6.65;;;13.90;99.90;;;;;;4953897;29;20219;-74
2023/09/24 07:51:11;;;;;;;11.30;5.88;;;14.00;99.90;;;;;;4955653;29;20270;-70
2023/09/24 07:53:37;;;;;;;12.93;6.13;;;14.00;99.90;;;;;;4955946;29;20623;-68
2023/09/24 07:56:08;;;;;;;10.45;6.18;;;14.10;99.90;;;;;;4956208;29;20206;-69
2023/09/24 07:58:36;;;;;;;9.75;5.60;;;14.10;99.90;;;;;;4955690;29;20242;-73
2023/09/24 08:01:03;;;;;;;12.57;6.30;;;14.20;99.90;;;;;;4922014;29;20253;-70
2023/09/24 08:03:29;;;;;;;11.82;6.38;;;14.20;99.90;;;;;;4940568;29;20186;-74
2023/09/24 08:05:55;;;;;;;10.52;6.15;;;14.20;99.90;;;;;;4956290;29;20217;-71
2023/09/24 08:08:21;;;;;;;13.52;6.03;;;14.30;99.90;;;;;;4937538;29;20278;-71
2023/09/24 08:10:47;;;;;;;13.88;6.35;;;14.40;99.90;;;;;;4955580;29;20285;-70
2023/09/24 08:13:13;;;;;;;17.05;6.55;;;14.40;99.90;;;;;;4955733;29;20234;-70
2023/09/24 08:15:39;;;;;;;9.52;5.95;;;14.50;99.90;;;;;;4951348;29;20238;-69
2023/09/24 08:18:09;;;;;;;15.18;6.20;;;14.50;99.90;;;;;;4954864;29;20261;-70
2023/09/24 08:20:36;;;;;;;12.68;6.10;;;14.60;99.90;;;;;;4955511;29;20205;-70
2023/09/24 08:23:03;;;;;;;12.93;5.80;;;14.60;99.90;;;;;;4952597;28;20210;-70
2023/09/24 08:25:30;;;;;;;12.82;5.95;;;14.60;99.90;;;;;;4955276;29;20187;-70
2023/09/24 08:27:56;;;;;;;16.83;5.95;;;14.60;99.90;;;;;;4954825;28;20717;-70
2023/09/24 08:30:22;;;;;;;18.00;5.72;;;14.70;99.90;;;;;;4955278;29;20187;-69
2023/09/24 08:32:48;;;;;;;10.77;5.55;;;14.70;99.90;;;;;;4953695;29;20197;-70
2023/09/24 08:35:14;;;;;;;10.82;5.72;;;14.80;99.90;;;;;;4955164;29;20186;-70
2023/09/24 08:37:40;;;;;;;9.95;5.25;;;14.70;99.90;;;;;;4955270;29;20770;-71
2023/09/24 08:40:09;;;;;;;12.77;5.43;;;14.80;99.90;;;;;;4954261;29;20195;-71
2023/09/24 08:42:36;;;;;;;10.55;5.03;;;14.80;99.90;;;;;;4953761;29;20194;-71
2023/09/24 08:45:14;;;;;;;12.43;5.30;;;14.80;99.90;;;;;;4952548;29;20242;-70
2023/09/24 08:47:44;;;;;;;11.20;5.30;;;14.90;99.90;;;;;;4946769;29;20195;-69
2023/09/24 08:50:10;;;;;;;10.93;5.40;;;15.00;99.90;;;;;;4938168;29;20190;-69
2023/09/24 08:52:38;;;;;;;11.88;4.88;;;15.00;99.90;;;;;;4953945;29;20265;-70
2023/09/24 08:55:11;;;;;;;9.05;4.90;;;15.10;99.90;;;;;;4954206;29;20187;-69
2023/09/24 08:57:47;;;;;;;12.20;5.18;;;15.10;99.90;;;;;;4954930;29;20222;-70
2023/09/24 09:00:15;;;;;;;18.38;5.13;;;15.10;99.90;;;;;;4954715;29;20231;-70
2023/09/24 09:02:44;;;;;;;17.35;5.55;;;15.20;99.90;;;;;;4953880;29;20189;-70
2023/09/24 09:05:12;;;;;;;14.15;4.97;;;15.30;99.90;;;;;;4952876;29;20675;-70
2023/09/24 09:07:58;;;;;;;9.77;4.63;;;15.40;99.90;;;;;;4954808;29;20238;-71
2023/09/24 09:10:27;;;;;;;9.43;4.30;;;15.40;99.90;;;;;;4943670;29;20501;-71
2023/09/24 09:13:11;;;;;;;12.00;4.80;;;15.50;99.90;;;;;;4953979;29;20695;-69
2023/09/24 09:15:41;;;;;;;9.75;4.10;;;15.50;99.90;;;;;;4949802;29;20179;-70
2023/09/24 09:18:24;;;;;;;14.63;4.07;;;15.60;99.90;;;;;;4945173;29;20211;-71
2023/09/24 09:20:51;;;;;;;8.60;3.65;;;15.60;99.90;;;;;;4953917;29;20178;-71
2023/09/24 09:23:29;;;;;;;8.90;4.10;;;15.70;99.90;;;;;;4954501;29;20499;-71
2023/09/24 09:25:55;;;;;;;14.48;4.20;;;15.80;99.90;;;;;;4953213;29;20648;-71
2023/09/24 09:28:22;;;;;;;9.48;4.10;;;15.80;99.90;;;;;;4954290;29;20189;-70
2023/09/24 09:31:06;;;;;;;11.57;3.80;;;15.90;99.90;;;;;;4954043;29;20178;-70
2023/09/24 09:33:34;;;;;;;11.43;4.38;;;15.90;99.90;;;;;;4954072;29;20201;-71
2023/09/24 09:36:00;;;;;;;9.90;3.90;;;16.00;99.90;;;;;;4919425;29;20197;-71
2023/09/24 09:38:27;;;;;;;7.93;3.53;;;16.10;99.90;;;;;;4948691;28;20226;-70
2023/09/24 09:40:55;;;;;;;10.00;3.90;;;16.10;99.90;;;;;;4948975;29;20190;-71
2023/09/24 09:43:23;;;;;;;12.90;3.67;;;16.10;99.90;;;;;;4934731;29;20724;-70
2023/09/24 09:45:52;;;;;;;10.80;4.10;;;16.20;99.90;;;;;;4944430;29;20190;-69
2023/09/24 09:48:29;;;;;;;12.48;4.00;;;16.30;99.90;;;;;;4948863;29;20209;-70
2023/09/24 09:51:02;;;;;;;11.52;4.32;;;16.30;99.90;;;;;;4953861;29;20212;-70
2023/09/24 09:53:34;;;;;;;12.98;5.70;;;16.40;99.90;;;;;;4934455;29;20185;-70
2023/09/24 09:56:07;;;;;;;10.35;3.55;;;16.40;99.90;;;;;;4936343;29;20194;-69
2023/09/24 09:58:37;;;;;;;9.07;3.65;;;16.50;99.90;;;;;;4952053;29;20238;-70
2023/09/24 10:01:05;;;;;;;8.38;3.60;;;16.50;99.90;;;;;;4936588;29;20265;-70
2023/09/24 10:03:38;;;;;;;7.57;3.30;;;16.50;99.90;;;;;;4953171;29;20218;-69
2023/09/24 10:06:08;;;;;;;13.77;4.43;;;16.60;99.90;;;;;;4935746;29;20269;-71
2023/09/24 10:08:45;;;;;;;8.13;2.90;;;16.70;99.90;;;;;;4952790;29;20201;-71
2023/09/24 10:11:32;;;;;;;10.20;3.33;;;16.70;99.90;;;;;;4953241;29;20594;-70
2023/09/24 10:13:59;;;;;;;6.07;3.03;;;16.80;99.90;;;;;;4936657;29;20220;-71
2023/09/24 10:16:25;;;;;;;7.53;2.90;;;16.80;99.90;;;;;;4947528;29;20187;-71
2023/09/24 10:19:07;;;;;;;6.95;2.95;;;16.90;99.90;;;;;;4918853;29;20302;-72
2023/09/24 10:21:38;;;;;;;7.40;4.63;;;16.90;99.90;;;;;;4953185;29;20210;-72
2023/09/24 10:24:13;;;;;;;9.65;3.80;;;17.00;99.90;;;;;;4952975;29;20234;-70
2023/09/24 10:27:03;;;;;;;9.10;3.33;;;17.10;99.90;;;;;;4953222;29;20182;-70
2023/09/24 10:29:51;;;;;;;9.23;3.22;;;17.10;99.90;;;;;;4951289;29;20193;-70
2023/09/24 10:32:24;;;;;;;9.05;2.85;;;17.20;99.90;;;;;;4953176;29;20194;-70
2023/09/24 10:34:55;;;;;;;10.80;3.03;;;17.30;99.90;;;;;;4936594;29;20179;-70
2023/09/24 10:37:29;;;;;;;11.60;3.28;;;17.30;99.90;;;;;;4953329;29;20206;-70
2023/09/24 10:42:29;;;;;;;8.80;3.08;;;17.40;99.90;;;;;;4953052;29;20201;-69
2023/09/24 10:45:07;;;;;;;8.52;3.28;;;17.40;99.90;;;;;;4952090;29;20500;-69
2023/09/24 10:47:35;;;;;;;6.57;2.50;;;17.60;99.90;;;;;;4952770;29;20178;-70
2023/09/24 10:50:12;;;;;;;5.80;2.75;;;17.60;99.90;;;;;;4953787;28;20277;-69
2023/09/24 10:52:52;;;;;;;4.88;2.40;;;17.60;99.90;;;;;;4956968;29;20209;-70
2023/09/24 10:55:28;;;;;;;11.48;2.90;;;17.70;99.90;;;;;;4955204;29;20216;-70
2023/09/24 10:57:55;;;;;;;8.57;2.70;;;17.70;99.90;;;;;;4939630;29;20221;-69
2023/09/24 11:00:23;;;;;;;9.88;3.00;;;17.80;99.90;;;;;;4956774;29;20187;-69
2023/09/24 11:02:59;;;;;;;8.40;3.00;;;17.90;99.90;;;;;;4956429;29;20218;-70
2023/09/24 11:05:27;;;;;;;6.85;2.88;;;17.90;99.90;;;;;;4955622;29;20263;-70
2023/09/24 11:07:54;;;;;;;7.47;2.88;;;18.00;99.90;;;;;;4955854;29;20214;-72
2023/09/24 11:10:22;;;;;;;9.40;3.03;;;18.00;99.90;;;;;;4956173;29;20218;-71
2023/09/24 11:12:49;;;;;;;8.60;2.53;;;18.10;99.90;;;;;;4956121;29;20277;-71
2023/09/24 11:15:17;;;;;;;10.77;2.95;;;18.20;99.90;;;;;;4931370;29;20191;-69
2023/09/24 11:17:47;;;;;;;8.77;2.65;;;18.20;99.90;;;;;;4951910;29;20670;-70
2023/09/24 11:20:17;;;;;;;10.35;2.83;;;18.30;99.90;;;;;;4956452;29;20201;-70
2023/09/24 11:22:44;;;;;;;16.80;3.42;;;18.30;99.90;;;;;;4939264;29;20190;-69
2023/09/24 11:25:10;;;;;;;10.75;3.00;;;18.30;99.90;;;;;;4954808;29;20187;-70
2023/09/24 11:27:47;;;;;;;8.90;2.45;;;18.40;99.90;;;;;;4955116;29;20207;-70
2023/09/24 11:30:15;;;;;;;11.00;3.78;;;18.40;99.90;;;;;;4955999;29;20277;-69
2023/09/24 11:32:42;;;;;;;8.57;3.30;;;18.50;99.90;;;;;;4955256;29;20584;-71
2023/09/24 11:35:13;;;;;;;7.88;2.97;;;18.60;99.90;;;;;;4938519;29;20678;-69
2023/09/24 11:38:01;;;;;;;6.20;2.55;;;18.60;99.90;;;;;;4953718;29;20214;-72
2023/09/24 11:40:28;;;;;;;8.20;3.00;;;18.70;99.90;;;;;;4955270;29;20233;-70
2023/09/24 11:43:01;;;;;;;7.43;3.10;;;18.70;99.90;;;;;;4931596;29;20282;-69
2023/09/24 11:45:49;;;;;;;8.23;2.80;;;18.80;99.90;;;;;;4955539;29;20190;-70
2023/09/24 11:48:16;;;;;;;5.75;2.28;;;18.80;99.90;;;;;;4931439;29;20208;-70
2023/09/24 11:50:45;;;;;;;7.25;2.50;;;18.90;99.90;;;;;;4955161;29;20194;-70
2023/09/24 11:53:11;;;;;;;12.00;3.47;;;18.90;99.90;;;;;;4956096;29;20269;-69
2023/09/24 11:55:38;;;;;;;4.97;2.08;;;18.90;99.90;;;;;;4955825;29;20257;-69
2023/09/24 11:58:07;;;;;;;6.05;2.55;;;19.00;99.90;;;;;;4955101;29;20306;-70
2023/09/24 12:00:35;;;;;;;7.40;2.20;;;19.00;99.90;;;;;;4943024;29;20194;-69
2023/09/24 12:03:01;;;;;;;5.28;2.20;;;19.00;99.90;;;;;;4969013;28;20233;-70
2023/09/24 12:05:31;;;;;;;5.80;2.95;;;19.10;99.90;;;;;;4936915;29;20571;-71
2023/09/24 12:07:57;;;;;;;7.03;2.47;;;19.10;99.90;;;;;;4955475;29;20186;-70
2023/09/24 12:10:23;;;;;;;7.30;2.67;;;19.10;99.90;;;;;;4936914;29;20198;-70
2023/09/24 12:12:50;;;;;;;11.10;2.88;;;19.20;99.90;;;;;;4969522;28;20369;-70
2023/09/24 12:15:17;;;;;;;8.45;2.50;;;19.20;99.90;;;;;;4938395;29;20202;-71
2023/09/24 12:17:45;;;;;;;8.48;3.85;;;19.20;99.90;;;;;;4954649;29;20237;-69
2023/09/24 12:20:13;;;;;;;7.45;2.35;;;19.20;99.90;;;;;;4955864;29;20209;-71
2023/09/24 12:22:43;;;;;;;8.32;2.47;;;19.20;99.90;;;;;;4921616;29;20282;-68
2023/09/24 12:25:10;;;;;;;8.65;2.45;;;19.20;99.90;;;;;;4955629;29;20230;-67
2023/09/24 12:27:37;;;;;;;4.28;1.95;;;19.30;99.90;;;;;;4937941;29;20222;-67
2023/09/24 12:30:05;;;;;;;7.05;2.45;;;19.30;99.90;;;;;;4954745;29;20198;-69
2023/09/24 12:32:35;;;;;;;10.27;5.35;;;19.40;99.90;;;;;;4968508;28;20271;-67
2023/09/24 12:35:03;;;;;;;6.15;2.30;;;19.40;99.90;;;;;;4937996;29;20302;-70
2023/09/24 12:37:29;;;;;;;6.35;2.08;;;19.50;99.90;;;;;;4922235;29;20578;-71
2023/09/24 12:39:58;;;;;;;5.45;2.08;;;19.60;99.90;;;;;;4936718;29;20198;-66
2023/09/24 12:42:31;;;;;;;6.10;2.40;;;19.70;99.90;;;;;;4951066;29;20197;-69
2023/09/24 12:45:01;;;;;;;3.72;1.75;;;19.80;99.90;;;;;;4969496;28;20222;-66
2023/09/24 12:47:32;;;;;;;4.38;2.17;;;20.00;99.90;;;;;;4954750;29;20237;-66
2023/09/24 12:50:12;;;;;;;4.70;2.08;;;20.00;99.90;;;;;;4954599;29;20273;-69
2023/09/24 12:52:41;;;;;;;5.15;2.40;;;20.10;99.90;;;;;;4953092;29;20648;-70
2023/09/24 12:55:09;;;;;;;6.30;2.03;;;20.20;99.90;;;;;;4937377;29;20278;-66